Terminal Aerodrome Forecast
Issued by NWS

Home | Current Version | Previous Version | Text Only | Print | Product List | Glossary On
Versions: 1 2 3 4 5 6 7 8 9 10 11 12 13 14 15 16 17 18 19 20 21 22 23 24 25 26
000
FTUS45 KREV 040520
TAFTRK
TAF
KTRK 040520Z 0406/0506 VRB03KT P6SM SCT080 OVC100
     FM041700 20012KT P6SM VCSH SCT040 OVC100
     FM042300 22010G20KT P6SM -SHRA SCT025 OVC070=

USA.gov is the U.S. government's official web portal to all federal, state and local government web resources and services.